Time;durP1;ratioP1;P1;durP2;ratioP2;P2;SDS_P1;SDS_P2;PMS_P1;PMS_P2;Temp;Humidity;BMP_temperature;BMP_pressure;BME280_temperature;BME280_humidity;BME280_pressure;Samples;Min_cycle;Max_cycle;Signal;HPM_P1;HPM_P2
2022/11/25 00:00:36;;;;;;;66.77;32.80;;;3.70;99.90;;;;;;5206938;28;20181;-52
2022/11/25 00:03:07;;;;;;;71.60;30.90;;;3.80;99.90;;;;;;5193507;28;20516;-54
2022/11/25 00:05:37;;;;;;;76.93;35.43;;;3.80;99.90;;;;;;5220381;28;20208;-54
2022/11/25 00:08:08;;;;;;;65.30;30.57;;;3.80;99.90;;;;;;5207271;28;20194;-55
2022/11/25 00:10:38;;;;;;;61.20;31.23;;;3.80;99.90;;;;;;5215890;28;20189;-52
2022/11/25 00:13:09;;;;;;;49.63;27.67;;;3.80;99.90;;;;;;5206688;28;20635;-54
2022/11/25 00:15:40;;;;;;;61.57;30.60;;;3.90;99.90;;;;;;5214524;28;20200;-54
2022/11/25 00:18:10;;;;;;;66.67;32.10;;;4.00;99.90;;;;;;5193767;28;20206;-55
2022/11/25 00:20:41;;;;;;;63.67;31.37;;;4.00;99.90;;;;;;5218289;28;20578;-54
2022/11/25 00:23:11;;;;;;;69.73;31.90;;;4.10;99.90;;;;;;5222992;28;20180;-54
2022/11/25 00:25:42;;;;;;;75.03;33.60;;;4.00;99.90;;;;;;5205009;28;20235;-56
2022/11/25 00:28:13;;;;;;;75.63;32.83;;;3.90;99.90;;;;;;5209269;28;20664;-53
2022/11/25 00:30:44;;;;;;;75.03;31.67;;;4.00;99.90;;;;;;5209143;28;20195;-55
2022/11/25 00:33:15;;;;;;;71.17;30.10;;;4.00;99.90;;;;;;5222609;28;20177;-55
2022/11/25 00:35:45;;;;;;;68.60;31.53;;;4.00;99.90;;;;;;5207442;28;20857;-54
2022/11/25 00:38:16;;;;;;;63.20;29.13;;;4.00;99.90;;;;;;5218786;28;20427;-55
2022/11/25 00:44:34;;;;;;;72.50;31.67;;;3.90;99.90;;;;;;5208223;28;20220;-53
2022/11/25 00:46:31;;;;;;;76.17;31.73;;;3.90;99.90;;;;;;5206508;28;20519;-53
2022/11/25 00:49:01;;;;;;;72.20;32.83;;;4.00;99.90;;;;;;5206831;28;20839;-54
2022/11/25 00:51:32;;;;;;;77.83;31.47;;;4.00;99.90;;;;;;5189075;28;20216;-55
2022/11/25 00:54:03;;;;;;;68.00;31.50;;;4.00;99.90;;;;;;5234292;28;20180;-53
2022/11/25 00:56:34;;;;;;;69.70;30.93;;;3.90;99.90;;;;;;5224490;28;20706;-55
2022/11/25 00:59:04;;;;;;;61.47;31.07;;;4.00;99.90;;;;;;5221397;28;20219;-52
2022/11/25 01:01:35;;;;;;;67.07;29.90;;;4.10;99.90;;;;;;5206447;28;20185;-55
2022/11/25 01:04:07;;;;;;;60.87;31.03;;;4.10;99.90;;;;;;5208209;28;20212;-53
2022/11/25 01:06:38;;;;;;;63.90;31.90;;;4.20;99.90;;;;;;5193033;28;20469;-55
2022/11/25 01:09:10;;;;;;;74.37;33.30;;;4.30;99.90;;;;;;5194000;28;20436;-54
2022/11/25 01:11:41;;;;;;;59.77;30.43;;;4.20;99.90;;;;;;5187904;28;20432;-54
2022/11/25 01:14:12;;;;;;;62.13;29.90;;;4.10;99.90;;;;;;5222046;28;20445;-54
2022/11/25 01:16:42;;;;;;;56.23;29.33;;;4.10;99.90;;;;;;5206277;28;20214;-52
2022/11/25 01:19:13;;;;;;;62.27;28.70;;;4.20;99.90;;;;;;5206311;28;20631;-53
2022/11/25 01:21:44;;;;;;;72.43;34.80;;;4.10;99.90;;;;;;5198120;28;20188;-53
2022/11/25 01:24:15;;;;;;;64.60;32.40;;;4.10;99.90;;;;;;5220772;28;20466;-52
2022/11/25 01:26:46;;;;;;;71.23;34.17;;;4.10;99.90;;;;;;5207067;28;20197;-52
2022/11/25 01:29:17;;;;;;;60.17;32.00;;;4.10;99.90;;;;;;5224773;28;20422;-52
2022/11/25 01:31:48;;;;;;;65.90;30.70;;;4.10;99.90;;;;;;5214723;28;20632;-53
2022/11/25 01:34:22;;;;;;;67.80;31.83;;;4.10;99.90;;;;;;5221576;28;20431;-53
2022/11/25 01:36:53;;;;;;;62.07;31.00;;;4.10;99.90;;;;;;5223790;28;20638;-53
2022/11/25 01:39:25;;;;;;;68.60;31.83;;;4.10;99.90;;;;;;5219057;28;20462;-53
2022/11/25 01:41:55;;;;;;;68.20;33.30;;;4.00;99.90;;;;;;5220793;28;20586;-52
2022/11/25 01:44:28;;;;;;;64.57;29.63;;;4.10;99.90;;;;;;5212586;28;20542;-54
2022/11/25 01:47:11;;;;;;;71.50;32.80;;;4.10;99.90;;;;;;5208559;28;20611;-52
2022/11/25 01:50:03;;;;;;;56.70;28.90;;;4.20;99.90;;;;;;5212113;28;20422;-51
2022/11/25 01:52:42;;;;;;;66.40;31.63;;;4.20;99.90;;;;;;5212599;28;20530;-53
2022/11/25 01:55:16;;;;;;;59.73;29.87;;;4.10;99.90;;;;;;5216625;28;20456;-52
2022/11/25 01:57:52;;;;;;;61.03;30.10;;;4.20;99.90;;;;;;5214972;28;20432;-53
2022/11/25 02:00:24;;;;;;;70.27;30.50;;;4.20;99.90;;;;;;5208298;28;20432;-53
2022/11/25 02:02:56;;;;;;;63.10;29.13;;;4.20;99.90;;;;;;5206417;28;20427;-53
2022/11/25 02:05:51;;;;;;;66.33;31.70;;;4.20;99.90;;;;;;5226132;28;20951;-52
2022/11/25 02:08:23;;;;;;;51.20;28.33;;;4.30;99.90;;;;;;5215541;28;20997;-53
2022/11/25 02:10:54;;;;;;;67.77;31.20;;;4.20;99.90;;;;;;5206477;28;20871;-52
2022/11/25 02:13:25;;;;;;;73.37;33.57;;;4.20;99.90;;;;;;5225241;28;20504;-53
2022/11/25 02:15:56;;;;;;;68.53;29.60;;;4.10;99.90;;;;;;5209590;28;20459;-53
2022/11/25 02:18:26;;;;;;;62.73;32.00;;;4.20;99.90;;;;;;5221979;28;20258;-53
2022/11/25 02:20:57;;;;;;;71.77;33.10;;;4.20;99.90;;;;;;5209681;28;20262;-52
2022/11/25 02:24:02;;;;;;;71.53;31.83;;;4.10;99.90;;;;;;5216712;28;20188;-53
2022/11/25 02:26:33;;;;;;;68.27;32.00;;;4.10;99.90;;;;;;5212365;28;20213;-53
2022/11/25 02:29:04;;;;;;;71.97;33.20;;;4.10;99.90;;;;;;5231272;28;20414;-53
2022/11/25 02:31:35;;;;;;;72.30;31.50;;;4.10;99.90;;;;;;5229212;28;20432;-53
2022/11/25 02:34:05;;;;;;;69.80;32.17;;;4.20;99.90;;;;;;5222464;28;20498;-53
2022/11/25 02:36:36;;;;;;;73.67;31.73;;;4.10;99.90;;;;;;5226748;28;20288;-53
2022/11/25 02:39:07;;;;;;;67.43;32.30;;;4.10;99.90;;;;;;5225878;28;20192;-53
2022/11/25 02:41:49;;;;;;;58.70;29.70;;;4.10;99.90;;;;;;5205670;28;20837;-51
2022/11/25 02:44:20;;;;;;;54.87;28.40;;;4.10;99.90;;;;;;5228851;28;20192;-53
2022/11/25 02:46:51;;;;;;;63.77;31.93;;;4.20;99.90;;;;;;5204164;28;20447;-54
2022/11/25 02:49:21;;;;;;;104.00;40.70;;;4.20;99.90;;;;;;5227111;28;20271;-53
2022/11/25 02:51:52;;;;;;;93.60;40.20;;;4.20;99.90;;;;;;5222250;28;20266;-53
2022/11/25 02:54:23;;;;;;;72.63;36.37;;;4.10;99.90;;;;;;5208201;28;20215;-53
2022/11/25 02:56:53;;;;;;;80.27;34.33;;;4.20;99.90;;;;;;5206479;28;20202;-52
2022/11/25 02:59:24;;;;;;;71.30;34.83;;;4.10;99.90;;;;;;5210910;28;20238;-52
2022/11/25 03:01:54;;;;;;;54.27;28.20;;;4.20;99.90;;;;;;5221171;28;20180;-52
2022/11/25 03:04:25;;;;;;;60.87;29.83;;;4.20;99.90;;;;;;5212203;28;20223;-52
2022/11/25 03:06:56;;;;;;;61.37;26.97;;;4.30;99.90;;;;;;5220968;28;20210;-52
2022/11/25 03:09:26;;;;;;;46.43;24.93;;;4.30;99.90;;;;;;5223322;28;20269;-51
2022/11/25 03:14:46;;;;;;;69.17;28.57;;;4.40;99.90;;;;;;5219776;28;20195;-53
2022/11/25 03:17:17;;;;;;;50.77;27.00;;;4.40;99.90;;;;;;5208928;28;20430;-49
2022/11/25 03:19:48;;;;;;;56.70;27.80;;;4.40;99.90;;;;;;5220353;28;20420;-52
2022/11/25 03:22:18;;;;;;;49.77;26.30;;;4.30;99.90;;;;;;5205054;28;20187;-53
2022/11/25 03:24:49;;;;;;;58.70;26.87;;;4.30;99.90;;;;;;5215921;28;20220;-53
2022/11/25 03:27:19;;;;;;;50.80;26.70;;;4.40;99.90;;;;;;5213145;28;20273;-53
2022/11/25 03:29:50;;;;;;;46.17;23.40;;;4.40;99.90;;;;;;5221048;28;20181;-52
2022/11/25 03:32:21;;;;;;;51.00;23.00;;;4.40;99.90;;;;;;5200734;28;20235;-51
2022/11/25 03:34:51;;;;;;;51.30;24.97;;;4.50;99.90;;;;;;5211302;28;20200;-53
2022/11/25 03:37:22;;;;;;;46.03;25.50;;;4.50;99.90;;;;;;5223989;28;20185;-53
2022/11/25 03:39:52;;;;;;;49.53;23.47;;;4.50;99.90;;;;;;5208421;28;20200;-52
2022/11/25 03:42:23;;;;;;;55.23;27.03;;;4.60;99.90;;;;;;5219152;28;20187;-52
2022/11/25 03:44:54;;;;;;;61.20;29.07;;;4.60;99.90;;;;;;5208044;28;20219;-49
2022/11/25 03:47:24;;;;;;;48.10;24.07;;;4.50;99.90;;;;;;5211562;28;20248;-51
2022/11/25 03:49:55;;;;;;;42.70;21.70;;;4.50;99.90;;;;;;5206210;28;20239;-54
2022/11/25 03:52:26;;;;;;;63.63;29.97;;;4.50;99.90;;;;;;5212425;28;20620;-54
2022/11/25 03:54:56;;;;;;;47.93;26.27;;;4.60;99.90;;;;;;5198237;28;20237;-55
2022/11/25 03:57:27;;;;;;;47.10;25.13;;;4.50;99.90;;;;;;5228249;28;20196;-53
2022/11/25 03:59:57;;;;;;;49.03;26.30;;;4.50;99.90;;;;;;5224065;28;20253;-53
2022/11/25 04:02:28;;;;;;;44.83;24.60;;;4.50;99.90;;;;;;5213481;28;20552;-52
2022/11/25 04:04:59;;;;;;;47.93;24.67;;;4.50;99.90;;;;;;5212167;28;20678;-54
2022/11/25 04:07:29;;;;;;;44.20;24.37;;;4.50;99.90;;;;;;5218353;28;20273;-53
2022/11/25 04:10:00;;;;;;;55.90;25.63;;;4.50;99.90;;;;;;5215694;28;20198;-54
2022/11/25 04:12:45;;;;;;;55.63;27.90;;;4.50;99.90;;;;;;5208228;28;20225;-54
2022/11/25 04:15:17;;;;;;;54.30;27.13;;;4.50;99.90;;;;;;5199911;28;20221;-53
2022/11/25 04:17:47;;;;;;;68.30;26.30;;;4.50;99.90;;;;;;5207595;28;21020;-55
2022/11/25 04:20:18;;;;;;;60.73;27.30;;;4.60;99.90;;;;;;5201882;28;20519;-52
2022/11/25 04:22:49;;;;;;;49.77;26.40;;;4.50;99.90;;;;;;5217287;28;20216;-53
2022/11/25 04:25:19;;;;;;;53.40;25.87;;;4.50;99.90;;;;;;5217745;28;20272;-55
2022/11/25 04:27:50;;;;;;;60.53;26.23;;;4.50;99.90;;;;;;5212820;28;20194;-53
2022/11/25 04:30:21;;;;;;;63.97;25.50;;;4.40;99.90;;;;;;5208261;28;20217;-54
2022/11/25 04:32:52;;;;;;;62.37;27.50;;;4.50;99.90;;;;;;5188221;28;20463;-52
2022/11/25 04:35:22;;;;;;;58.87;28.70;;;4.50;99.90;;;;;;5193979;28;20219;-52
2022/11/25 04:37:53;;;;;;;78.50;28.90;;;4.50;99.90;;;;;;5220011;28;20275;-52
2022/11/25 04:40:24;;;;;;;58.17;30.43;;;4.50;99.90;;;;;;5217150;28;20267;-51
2022/11/25 04:42:55;;;;;;;61.03;26.80;;;4.40;99.90;;;;;;5214812;28;20733;-53
2022/11/25 04:45:25;;;;;;;59.13;24.33;;;4.50;99.90;;;;;;5204525;28;20619;-54
2022/11/25 04:47:56;;;;;;;55.33;27.17;;;4.50;99.90;;;;;;5215673;28;20242;-53
2022/11/25 04:50:27;;;;;;;50.67;26.90;;;4.50;99.90;;;;;;5218288;28;20665;-52
2022/11/25 04:52:57;;;;;;;56.90;27.90;;;4.50;99.90;;;;;;5212902;28;20652;-53
2022/11/25 04:55:28;;;;;;;58.97;28.93;;;4.50;99.90;;;;;;5205641;28;20261;-52
2022/11/25 04:57:59;;;;;;;52.47;27.80;;;4.40;99.90;;;;;;5217255;28;20249;-52
2022/11/25 05:00:30;;;;;;;52.23;28.33;;;4.50;99.90;;;;;;5213452;28;20451;-52
2022/11/25 05:03:00;;;;;;;66.30;28.07;;;4.50;99.90;;;;;;5218219;28;20510;-53
2022/11/25 05:05:31;;;;;;;72.73;29.47;;;4.50;99.90;;;;;;5223010;28;20564;-50
2022/11/25 05:08:02;;;;;;;69.50;29.70;;;4.40;99.90;;;;;;5205914;28;20196;-49
2022/11/25 05:10:32;;;;;;;58.73;27.80;;;4.40;99.90;;;;;;5200328;28;20185;-48
2022/11/25 05:13:03;;;;;;;59.30;30.43;;;4.40;99.90;;;;;;5215942;28;20249;-51
2022/11/25 05:15:33;;;;;;;66.20;30.47;;;4.40;99.90;;;;;;5224664;28;20627;-51
2022/11/25 05:18:04;;;;;;;79.03;29.93;;;4.40;99.90;;;;;;5207345;28;20477;-49
2022/11/25 05:20:35;;;;;;;63.77;29.27;;;4.40;99.90;;;;;;5217677;28;20191;-51
2022/11/25 05:23:06;;;;;;;97.57;33.00;;;4.40;99.90;;;;;;5194219;28;20286;-51
2022/11/25 05:25:36;;;;;;;78.83;33.37;;;4.40;99.90;;;;;;5210832;28;20576;-48
2022/11/25 05:28:07;;;;;;;76.03;31.93;;;4.40;99.90;;;;;;5221076;28;20193;-48
2022/11/25 05:30:37;;;;;;;62.93;30.20;;;4.40;99.90;;;;;;5204358;28;20536;-53
2022/11/25 05:33:08;;;;;;;68.03;30.90;;;4.30;99.90;;;;;;5208397;28;20200;-48
2022/11/25 05:35:39;;;;;;;82.50;31.50;;;4.40;99.90;;;;;;5213879;28;20207;-49
2022/11/25 05:38:09;;;;;;;69.67;30.83;;;4.40;99.90;;;;;;5214556;28;20193;-48
2022/11/25 05:40:40;;;;;;;63.83;29.77;;;4.40;99.90;;;;;;5197484;28;20544;-48
2022/11/25 05:43:10;;;;;;;76.23;28.30;;;4.50;99.90;;;;;;5221853;28;20228;-48
2022/11/25 05:45:41;;;;;;;68.30;28.63;;;4.50;99.90;;;;;;5206264;28;20241;-48
2022/11/25 05:48:11;;;;;;;77.40;31.20;;;4.50;99.90;;;;;;5202795;28;20183;-48
2022/11/25 05:50:42;;;;;;;70.77;28.87;;;4.50;99.90;;;;;;5199069;28;20195;-48
2022/11/25 05:53:16;;;;;;;77.77;31.57;;;4.50;99.90;;;;;;5202271;28;20669;-47
2022/11/25 05:55:53;;;;;;;77.33;31.50;;;4.50;99.90;;;;;;5221540;28;20209;-47
2022/11/25 05:58:24;;;;;;;72.60;29.37;;;4.50;99.90;;;;;;5206164;28;20450;-48
2022/11/25 06:00:57;;;;;;;65.77;28.30;;;4.50;99.90;;;;;;5196081;28;20440;-46
2022/11/25 06:03:28;;;;;;;72.50;32.20;;;4.50;99.90;;;;;;5215307;28;20191;-47
2022/11/25 06:05:59;;;;;;;63.33;29.60;;;4.40;99.90;;;;;;5217879;28;20535;-52
2022/11/25 06:08:30;;;;;;;56.63;26.60;;;4.50;99.90;;;;;;5220626;28;20434;-48
2022/11/25 06:11:10;;;;;;;54.70;27.60;;;4.50;99.90;;;;;;5205382;28;20470;-47
2022/11/25 06:13:42;;;;;;;55.17;26.47;;;4.50;99.90;;;;;;5213873;28;20972;-48
2022/11/25 06:16:20;;;;;;;62.63;29.30;;;4.50;99.90;;;;;;5228370;28;20600;-47
2022/11/25 06:18:51;;;;;;;65.70;30.17;;;4.50;99.90;;;;;;5231786;28;20438;-48
2022/11/25 06:21:21;;;;;;;57.13;28.20;;;4.50;99.90;;;;;;5221317;28;20459;-47
2022/11/25 06:23:52;;;;;;;60.87;28.87;;;4.40;99.90;;;;;;5229592;28;20441;-48
2022/11/25 06:26:23;;;;;;;69.80;30.07;;;4.40;99.90;;;;;;5231104;28;20277;-47
2022/11/25 06:28:55;;;;;;;67.23;29.80;;;4.30;99.90;;;;;;5230112;28;20238;-48
2022/11/25 06:31:26;;;;;;;73.13;29.93;;;4.30;99.90;;;;;;5227833;28;20459;-53
2022/11/25 06:33:56;;;;;;;68.23;32.03;;;4.20;99.90;;;;;;5225929;28;20564;-48
2022/11/25 06:36:27;;;;;;;82.80;33.40;;;4.10;99.90;;;;;;5209181;28;20199;-48
2022/11/25 06:38:58;;;;;;;73.47;33.33;;;4.10;99.90;;;;;;5230552;28;20272;-49
2022/11/25 06:41:28;;;;;;;74.80;33.40;;;3.90;99.90;;;;;;5222540;28;20181;-49
2022/11/25 06:43:59;;;;;;;79.33;33.40;;;3.90;99.90;;;;;;5219657;28;20281;-48
2022/11/25 06:46:30;;;;;;;84.17;33.70;;;3.90;99.90;;;;;;5235543;28;20207;-50
2022/11/25 06:49:00;;;;;;;79.93;34.20;;;3.80;99.90;;;;;;5226922;28;20612;-50
2022/11/25 06:51:31;;;;;;;88.80;34.20;;;3.70;99.90;;;;;;5226112;28;20448;-52
2022/11/25 06:54:02;;;;;;;94.63;34.87;;;3.80;99.90;;;;;;5226709;28;20211;-51
2022/11/25 06:56:33;;;;;;;102.80;37.87;;;3.80;99.90;;;;;;5226832;28;20438;-51
2022/11/25 06:59:03;;;;;;;91.03;35.03;;;3.80;99.90;;;;;;5196890;28;20183;-51
2022/11/25 07:01:34;;;;;;;94.13;36.10;;;3.80;99.90;;;;;;5212432;28;20225;-50
2022/11/25 07:04:05;;;;;;;111.73;41.40;;;3.80;99.90;;;;;;5222404;28;20207;-50
2022/11/25 07:06:35;;;;;;;100.67;39.67;;;3.80;99.90;;;;;;5206409;28;20465;-51
2022/11/25 07:09:06;;;;;;;110.23;41.33;;;3.80;99.90;;;;;;5222166;28;20311;-50
2022/11/25 07:11:39;;;;;;;107.13;38.97;;;3.80;99.90;;;;;;5206836;28;20180;-50
2022/11/25 07:14:14;;;;;;;126.03;41.30;;;3.80;99.90;;;;;;5220389;28;20522;-52
2022/11/25 07:16:45;;;;;;;124.70;42.50;;;3.90;99.90;;;;;;5203865;28;20532;-51
2022/11/25 07:19:17;;;;;;;131.63;45.13;;;3.90;99.90;;;;;;5205205;28;20445;-51
2022/11/25 07:21:48;;;;;;;139.23;49.40;;;3.80;99.90;;;;;;5222962;28;20465;-50
2022/11/25 07:24:18;;;;;;;147.57;46.50;;;3.90;99.90;;;;;;5201491;28;20947;-50
2022/11/25 07:26:49;;;;;;;149.63;47.50;;;3.90;99.90;;;;;;5205774;28;20202;-50
2022/11/25 07:29:20;;;;;;;128.20;43.87;;;4.10;99.90;;;;;;5220661;28;20549;-51
2022/11/25 07:31:50;;;;;;;119.50;41.20;;;4.20;99.90;;;;;;5223029;28;20181;-52
2022/11/25 07:34:22;;;;;;;113.67;38.13;;;4.30;99.90;;;;;;5205122;28;20181;-51
2022/11/25 07:36:52;;;;;;;108.33;40.27;;;4.50;99.90;;;;;;5207874;28;20590;-50
2022/11/25 07:39:23;;;;;;;102.50;41.30;;;4.40;99.90;;;;;;5204704;28;20437;-51
2022/11/25 07:41:54;;;;;;;111.33;38.20;;;4.50;99.90;;;;;;5207219;28;20187;-52
2022/11/25 07:44:24;;;;;;;94.10;36.63;;;4.50;99.90;;;;;;5224129;28;20212;-51
2022/11/25 07:46:55;;;;;;;144.20;41.10;;;4.40;99.90;;;;;;5224889;28;20460;-51
2022/11/25 07:49:26;;;;;;;110.13;37.80;;;4.50;99.90;;;;;;5223657;28;20268;-56
2022/11/25 07:51:59;;;;;;;113.87;37.97;;;4.50;99.90;;;;;;5223221;28;20641;-53
2022/11/25 07:54:31;;;;;;;143.03;40.73;;;4.50;99.90;;;;;;5204901;28;20838;-52
2022/11/25 07:57:01;;;;;;;119.40;37.30;;;4.50;99.90;;;;;;5206589;28;20440;-51
2022/11/25 07:59:32;;;;;;;104.17;38.37;;;4.60;99.90;;;;;;5205288;28;21037;-52
2022/11/25 08:02:03;;;;;;;105.83;37.13;;;4.70;99.90;;;;;;5221309;28;20181;-50
2022/11/25 08:04:33;;;;;;;109.13;36.87;;;4.60;99.90;;;;;;5223715;28;20206;-49
2022/11/25 08:07:04;;;;;;;103.30;36.50;;;4.60;99.90;;;;;;5223265;28;20199;-52
2022/11/25 08:09:35;;;;;;;109.73;39.10;;;4.70;99.90;;;;;;5222512;28;20670;-51
2022/11/25 08:12:05;;;;;;;94.37;36.90;;;4.70;99.90;;;;;;5222640;28;20185;-51
2022/11/25 08:14:36;;;;;;;107.97;36.97;;;4.60;99.90;;;;;;5207624;28;20689;-50
2022/11/25 08:17:07;;;;;;;101.83;34.60;;;4.70;99.90;;;;;;5200354;28;20686;-51
2022/11/25 08:19:39;;;;;;;98.40;34.20;;;4.70;99.90;;;;;;5201703;28;20191;-52
2022/11/25 08:22:09;;;;;;;101.90;34.17;;;4.80;99.90;;;;;;5198467;28;20184;-48
2022/11/25 08:24:40;;;;;;;83.30;35.00;;;4.70;99.90;;;;;;5215780;28;20521;-48
2022/11/25 08:27:11;;;;;;;80.37;31.60;;;4.70;99.90;;;;;;5200105;28;20183;-52
2022/11/25 08:29:41;;;;;;;93.77;33.53;;;4.80;99.90;;;;;;5220592;28;20637;-49
2022/11/25 08:32:12;;;;;;;105.50;32.80;;;4.80;99.90;;;;;;5217873;28;20283;-50
2022/11/25 08:34:43;;;;;;;87.13;34.10;;;4.80;99.90;;;;;;5217893;28;20653;-49
2022/11/25 08:37:13;;;;;;;62.07;28.20;;;4.80;99.90;;;;;;5201842;28;20204;-48
2022/11/25 08:39:44;;;;;;;67.70;26.60;;;4.80;99.90;;;;;;5202700;28;20204;-49
2022/11/25 08:42:14;;;;;;;61.77;25.10;;;5.10;99.90;;;;;;5202990;28;20239;-51
2022/11/25 08:44:49;;;;;;;62.47;26.90;;;5.20;99.90;;;;;;5222672;28;20204;-48
2022/11/25 08:47:21;;;;;;;61.07;26.27;;;5.10;99.90;;;;;;5205945;28;20195;-50
2022/11/25 08:49:53;;;;;;;61.27;25.67;;;5.10;99.90;;;;;;5206869;28;20937;-48
2022/11/25 08:52:24;;;;;;;64.80;26.43;;;4.90;99.90;;;;;;5205037;28;20442;-49
2022/11/25 08:54:54;;;;;;;62.40;26.37;;;5.20;99.90;;;;;;5205452;28;20886;-49
2022/11/25 08:57:25;;;;;;;53.17;24.60;;;5.00;99.90;;;;;;5222503;28;20185;-48
2022/11/25 08:59:56;;;;;;;56.20;24.53;;;5.10;99.90;;;;;;5224482;28;20244;-49
2022/11/25 09:02:26;;;;;;;67.93;25.97;;;5.20;99.90;;;;;;5222651;28;20233;-49
2022/11/25 09:04:57;;;;;;;72.37;28.67;;;5.10;99.90;;;;;;5224560;28;20352;-47
2022/11/25 09:07:27;;;;;;;71.20;26.93;;;5.10;99.90;;;;;;5221026;28;20268;-55
2022/11/25 09:09:58;;;;;;;82.80;31.20;;;5.00;99.90;;;;;;5207547;28;20561;-48
2022/11/25 09:12:29;;;;;;;65.90;29.03;;;5.10;99.90;;;;;;5219545;28;20207;-48
2022/11/25 09:14:59;;;;;;;73.07;29.50;;;5.00;99.90;;;;;;5204947;28;20204;-48
2022/11/25 09:17:30;;;;;;;59.10;26.27;;;5.10;99.90;;;;;;5221308;28;20209;-52
2022/11/25 09:20:01;;;;;;;54.03;25.57;;;5.10;99.90;;;;;;5217367;28;20186;-48
2022/11/25 09:22:32;;;;;;;60.27;26.30;;;5.20;99.90;;;;;;5223946;28;20181;-47
2022/11/25 09:25:03;;;;;;;70.87;27.90;;;5.40;99.90;;;;;;5222234;28;20246;-49
2022/11/25 09:27:33;;;;;;;67.07;28.43;;;5.40;99.90;;;;;;5189140;28;20552;-48
2022/11/25 09:30:05;;;;;;;81.43;29.47;;;5.30;99.90;;;;;;5201900;28;20428;-50
2022/11/25 09:32:35;;;;;;;86.03;31.03;;;5.30;99.90;;;;;;5221746;28;20524;-48
2022/11/25 09:35:06;;;;;;;76.47;27.17;;;5.40;99.90;;;;;;5200471;28;20847;-49
2022/11/25 09:37:37;;;;;;;78.70;29.20;;;5.30;99.90;;;;;;5204180;28;20189;-49
2022/11/25 09:40:19;;;;;;;69.23;29.20;;;5.20;99.90;;;;;;5223094;28;20271;-50
2022/11/25 09:46:53;;;;;;;79.53;29.80;;;5.50;99.90;;;;;;5214478;28;21325;-48
2022/11/25 09:49:30;;;;;;;69.43;27.83;;;5.50;99.90;;;;;;5222240;28;20428;-50
2022/11/25 09:52:36;;;;;;;79.60;27.90;;;5.50;99.90;;;;;;5223749;28;20432;-54
2022/11/25 09:55:16;;;;;;;63.57;27.00;;;5.50;99.90;;;;;;5225739;28;20478;-49
2022/11/25 09:58:02;;;;;;;64.03;27.10;;;5.50;99.90;;;;;;5207925;28;20513;-52
2022/11/25 10:00:39;;;;;;;65.40;28.43;;;5.50;99.90;;;;;;5226508;28;20456;-49
2022/11/25 10:03:13;;;;;;;64.57;26.10;;;5.40;99.90;;;;;;5209001;28;20416;-50
2022/11/25 10:05:49;;;;;;;54.80;25.63;;;5.40;99.90;;;;;;5221148;28;20533;-49
2022/11/25 10:08:24;;;;;;;65.23;27.57;;;5.40;99.90;;;;;;5224429;28;20460;-48
2022/11/25 10:11:06;;;;;;;68.77;28.10;;;5.30;99.90;;;;;;5223609;28;20841;-48
2022/11/25 10:14:07;;;;;;;67.13;27.97;;;5.30;99.90;;;;;;5222197;28;20423;-48
2022/11/25 10:16:46;;;;;;;57.83;28.20;;;5.30;99.90;;;;;;5222596;28;20462;-49
2022/11/25 10:19:42;;;;;;;57.77;27.60;;;5.30;99.90;;;;;;5223966;28;20439;-48
2022/11/25 10:22:19;;;;;;;82.50;30.73;;;5.30;99.90;;;;;;5224316;28;20447;-51
2022/11/25 10:24:57;;;;;;;84.47;31.20;;;5.30;99.90;;;;;;5206348;28;20467;-51
2022/11/25 10:28:03;;;;;;;68.37;30.00;;;5.60;99.90;;;;;;5225645;28;20422;-50
2022/11/25 10:30:44;;;;;;;68.20;28.90;;;5.70;99.90;;;;;;5200579;28;20435;-52
2022/11/25 10:33:26;;;;;;;69.93;30.57;;;5.80;99.90;;;;;;5221911;28;20438;-52
2022/11/25 10:36:02;;;;;;;73.60;30.90;;;5.90;99.90;;;;;;5206606;28;20459;-53
2022/11/25 10:38:36;;;;;;;72.83;31.27;;;6.10;99.90;;;;;;5221220;28;20519;-50
2022/11/25 10:41:16;;;;;;;65.37;28.93;;;6.20;99.90;;;;;;5207360;28;20800;-51
2022/11/25 10:43:47;;;;;;;60.37;28.00;;;6.10;99.90;;;;;;5207548;28;20440;-50
2022/11/25 10:46:39;;;;;;;63.47;29.33;;;6.00;99.90;;;;;;5226047;28;20464;-51
2022/11/25 10:49:37;;;;;;;72.00;30.60;;;6.00;99.90;;;;;;5202506;28;20440;-52
2022/11/25 10:52:12;;;;;;;69.90;30.90;;;5.90;99.90;;;;;;5215087;28;20446;-51
2022/11/25 10:55:08;;;;;;;72.57;31.40;;;5.90;99.90;;;;;;5224839;28;20416;-50
2022/11/25 10:57:38;;;;;;;70.33;30.53;;;6.00;99.90;;;;;;5223075;28;20423;-52
2022/11/25 11:00:31;;;;;;;59.37;30.40;;;6.20;99.90;;;;;;5217462;28;20433;-51
2022/11/25 11:03:19;;;;;;;71.97;31.40;;;6.00;99.90;;;;;;5220752;28;20488;-49
2022/11/25 11:05:52;;;;;;;75.63;33.70;;;6.00;99.90;;;;;;5224567;28;20479;-50
2022/11/25 11:08:26;;;;;;;75.70;34.13;;;6.00;99.90;;;;;;5224659;28;20990;-48
2022/11/25 11:11:08;;;;;;;68.50;32.57;;;6.00;99.90;;;;;;5219453;28;20444;-49
2022/11/25 11:13:38;;;;;;;67.10;33.20;;;6.10;99.90;;;;;;5224087;28;20463;-51
2022/11/25 11:16:34;;;;;;;69.73;33.30;;;6.20;99.90;;;;;;5206669;28;20456;-48
2022/11/25 11:19:05;;;;;;;82.00;32.50;;;6.10;99.90;;;;;;5224304;28;20911;-50
2022/11/25 11:21:40;;;;;;;66.50;33.47;;;6.00;99.90;;;;;;5187877;28;20435;-49
2022/11/25 11:24:31;;;;;;;68.93;33.87;;;6.00;99.90;;;;;;5220704;28;20297;-49
2022/11/25 11:27:22;;;;;;;69.47;32.80;;;6.10;99.90;;;;;;5223001;28;20430;-50
2022/11/25 11:30:30;;;;;;;58.53;29.00;;;6.30;99.90;;;;;;5206225;28;20490;-52
2022/11/25 11:33:04;;;;;;;60.80;30.17;;;6.40;99.90;;;;;;5123460;28;20435;-50
2022/11/25 11:36:07;;;;;;;54.70;28.23;;;6.40;99.90;;;;;;5193252;28;20464;-50
2022/11/25 11:38:53;;;;;;;55.43;29.53;;;6.30;99.90;;;;;;5204865;28;20449;-49
2022/11/25 11:41:37;;;;;;;63.17;29.63;;;6.10;99.90;;;;;;5204008;28;20448;-51
2022/11/25 11:44:21;;;;;;;54.07;25.93;;;6.10;99.90;;;;;;5191509;28;20510;-52
2022/11/25 11:47:11;;;;;;;60.03;27.60;;;6.10;99.90;;;;;;5193058;28;20450;-50
2022/11/25 11:49:49;;;;;;;49.37;26.80;;;6.20;99.90;;;;;;5218162;28;20429;-51
2022/11/25 11:52:35;;;;;;;59.30;28.80;;;6.10;99.90;;;;;;5200770;28;20429;-49
2022/11/25 11:55:39;;;;;;;51.17;25.67;;;5.90;99.90;;;;;;5218125;28;20500;-49
2022/11/25 11:58:15;;;;;;;61.37;30.13;;;5.80;99.90;;;;;;5218432;28;20448;-49
2022/11/25 12:01:07;;;;;;;65.97;31.90;;;5.90;99.90;;;;;;5221003;28;20461;-55
2022/11/25 12:03:49;;;;;;;65.20;31.00;;;5.90;99.90;;;;;;5203292;28;20525;-49
2022/11/25 12:06:23;;;;;;;72.47;31.23;;;6.10;99.90;;;;;;5215922;28;20546;-50
2022/11/25 12:09:00;;;;;;;68.17;32.13;;;6.00;99.90;;;;;;5214095;28;20456;-50
2022/11/25 12:11:42;;;;;;;60.97;32.93;;;6.00;99.90;;;;;;5214317;28;20448;-49
2022/11/25 12:14:31;;;;;;;64.07;29.97;;;5.90;99.90;;;;;;5218245;28;20455;-49
2022/11/25 12:17:12;;;;;;;64.87;30.37;;;5.90;99.90;;;;;;5183820;28;20987;-50
2022/11/25 12:20:18;;;;;;;60.77;29.53;;;5.80;99.90;;;;;;5213146;28;20488;-50
2022/11/25 12:23:12;;;;;;;60.67;30.00;;;5.80;99.90;;;;;;5204234;28;20442;-53
2022/11/25 12:25:46;;;;;;;59.53;32.10;;;5.60;99.90;;;;;;5213952;28;20491;-51
2022/11/25 12:28:27;;;;;;;76.27;34.60;;;5.50;99.90;;;;;;5218347;28;20439;-50
2022/11/25 12:31:29;;;;;;;67.67;32.67;;;5.50;99.90;;;;;;5215700;28;20527;-49
2022/11/25 12:34:18;;;;;;;68.03;32.43;;;5.50;99.90;;;;;;5211544;28;20447;-50
2022/11/25 12:37:09;;;;;;;78.83;35.10;;;5.40;99.90;;;;;;5217365;28;20465;-49
2022/11/25 12:40:03;;;;;;;66.90;32.07;;;5.40;99.90;;;;;;5214990;28;21201;-51
2022/11/25 12:42:38;;;;;;;59.27;31.07;;;5.30;99.90;;;;;;5222930;28;20424;-51
2022/11/25 12:45:24;;;;;;;64.43;32.73;;;5.30;99.90;;;;;;5202823;28;20481;-50
2022/11/25 12:47:55;;;;;;;64.60;32.63;;;5.30;99.90;;;;;;5213246;28;20436;-48
2022/11/25 12:50:54;;;;;;;72.27;35.97;;;5.30;99.90;;;;;;5206139;28;20838;-48
2022/11/25 12:53:24;;;;;;;82.17;37.17;;;5.30;99.90;;;;;;5218526;28;20313;-48
2022/11/25 12:55:58;;;;;;;78.03;34.53;;;5.30;99.90;;;;;;5199671;28;20552;-49
2022/11/25 12:58:32;;;;;;;66.83;33.83;;;5.30;99.90;;;;;;5207361;28;20360;-51
2022/11/25 13:01:23;;;;;;;72.53;34.10;;;5.20;99.90;;;;;;5216581;28;20452;-49
2022/11/25 13:04:29;;;;;;;73.60;38.37;;;5.20;99.90;;;;;;5213843;28;20443;-48
2022/11/25 13:07:27;;;;;;;73.80;35.00;;;5.20;99.90;;;;;;5214170;28;20516;-52
2022/11/25 13:10:35;;;;;;;71.60;34.83;;;5.30;99.90;;;;;;5193572;28;20548;-51
2022/11/25 13:13:17;;;;;;;70.07;35.93;;;5.30;99.90;;;;;;5201381;28;20555;-53
2022/11/25 13:15:51;;;;;;;70.93;30.37;;;5.40;99.90;;;;;;5201043;28;20490;-52
2022/11/25 13:18:26;;;;;;;64.97;30.47;;;5.40;99.90;;;;;;5218559;28;20455;-49
2022/11/25 13:21:05;;;;;;;67.93;32.30;;;5.40;99.90;;;;;;5201378;28;20442;-50
2022/11/25 13:23:57;;;;;;;57.73;31.53;;;5.50;99.90;;;;;;5218834;28;20443;-50